Date,TemperatureHighF,TemperatureAvgF,TemperatureLowF,DewpointHighF,DewpointAvgF,DewpointLowF,HumidityHigh,HumidityAvg,HumidityLow,PressureMaxIn,PressureMinIn,WindSpeedMaxMPH,WindSpeedAvgMPH,GustSpeedMaxMPH,PrecipitationSumIn
2013-1-1,57,42,33,37,33,27,100,72,33,30.20,30.09,20,7,20,0.00
2013-1-2,58,41,27,38,32,24,100,74,40,30.15,30.03,12,5,12,0.00
2013-1-3,58,40,28,41,34,27,100,84,44,30.16,30.04,10,4,10,0.00
2013-1-4,58,42,30,44,37,30,100,84,49,30.20,30.08,10,4,10,0.00
2013-1-5,50,42,33,46,41,32,100,94,78,30.15,29.96,10,3,10,0.40
2013-1-6,55,45,36,46,43,36,100,91,65,30.08,29.97,17,5,17,0.01
2013-1-7,59,44,32,50,41,32,100,93,64,30.15,30.04,9,3,9,0.00
2013-1-8,60,44,34,54,43,34,100,95,70,30.14,30.03,13,3,13,0.00
2013-1-9,49,44,38,49,41,33,100,92,66,30.05,29.86,22,5,22,0.00
2013-1-10,52,39,29,42,33,29,100,82,46,30.05,29.93,13,4,13,0.00
2013-1-11,53,37,26,39,33,26,100,89,53,30.13,30.00,12,4,12,0.00
2013-1-12,51,40,28,35,30,22,96,70,34,30.15,30.03,15,7,15,0.00
2013-1-13,55,38,23,31,21,8,100,58,18,30.16,30.05,18,6,18,0.00
2013-1-14,57,44,31,30,19,10,90,42,21,30.30,30.11,25,9,25,0.00
2013-1-15,52,38,26,35,31,26,100,78,50,30.38,30.26,16,6,16,0.00
2013-1-16,60,40,26,41,34,26,100,82,44,30.32,30.14,13,5,13,0.00
2013-1-17,65,42,27,45,36,26,100,82,40,30.16,30.05,12,4,12,0.00
2013-1-18,66,43,27,45,35,27,100,77,40,30.14,30.04,10,4,10,0.00
2013-1-19,71,47,29,40,33,26,98,63,22,30.16,30.05,10,4,10,0.00
2013-1-20,66,46,32,40,33,26,89,63,34,30.13,30.03,12,5,12,0.00
2013-1-21,67,46,30,41,35,27,98,69,33,30.09,29.98,10,5,10,0.00
2013-1-22,67,48,33,46,36,28,89,65,33,30.02,29.91,10,5,10,0.00
2013-1-23,51,49,47,50,45,38,100,89,68,29.99,29.85,15,4,15,0.33
2013-1-24,61,51,47,56,51,47,100,98,84,30.09,29.96,12,3,12,0.01
2013-1-25,67,55,46,59,52,46,100,92,67,30.09,29.94,10,3,10,0.00
2013-1-26,60,49,38,53,42,35,100,81,44,29.94,29.87,20,5,20,0.00
2013-1-27,59,43,30,43,35,30,100,79,37,30.08,29.92,16,5,16,0.00
2013-1-28,61,45,32,45,38,32,100,79,42,30.15,30.03,15,5,15,0.00
2013-1-29,65,46,34,46,40,34,100,83,45,30.25,30.15,12,4,12,0.00
2013-1-30,64,49,36,51,43,36,100,85,52,30.26,30.14,15,6,15,0.00
2013-1-31,66,49,35,52,44,35,100,84,49,30.20,30.07,12,5,12,0.00
2013-2-1,73,51,34,49,43,34,100,78,36,30.12,30.03,9,4,9,0.00
2013-2-2,64,49,39,52,45,38,100,88,63,30.20,30.10,13,4,13,0.00
2013-2-3,62,48,38,52,46,38,100,94,69,30.15,30.03,13,4,13,0.00
2013-2-4,55,44,36,50,43,36,100,98,84,30.07,29.95,12,3,12,0.00
2013-2-5,62,48,38,49,44,37,100,88,62,30.03,29.95,16,4,16,0.00
2013-2-6,60,45,33,46,40,33,100,85,50,30.10,30.00,16,6,16,0.00
2013-2-7,57,45,35,52,39,28,100,82,36,30.03,29.93,18,5,18,0.07
2013-2-9,63,50,35,36,30,18,89,52,19,29.97,29.92,16,7,16,0.00
2013-2-10,61,44,30,43,36,30,100,76,49,30.02,29.92,17,6,17,0.00
2013-2-11,70,50,36,39,32,27,88,55,22,30.11,29.95,20,7,20,0.00
2013-2-12,62,46,33,44,39,33,100,79,44,30.27,30.11,15,5,15,0.00
2013-2-13,63,47,32,50,42,32,100,86,52,30.25,30.10,13,5,13,0.00
2013-2-14,70,50,34,52,43,34,100,79,41,30.15,30.07,14,4,14,0.00
2013-2-15,72,54,36,47,41,33,98,66,34,30.19,30.09,13,6,13,0.00
2013-2-16,69,52,39,49,44,37,99,76,48,30.13,29.92,14,5,14,0.00
2013-2-17,65,48,35,50,42,35,100,83,47,29.96,29.85,15,6,15,0.00
2013-2-18,56,45,33,44,40,33,100,85,57,29.91,29.80,17,7,17,0.00
2013-2-19,50,41,31,45,37,30,100,85,52,29.83,29.62,21,6,21,0.34
2013-2-20,62,43,27,40,33,27,100,74,30,29.92,29.71,20,6,20,0.00
2013-2-21,64,47,32,39,34,23,100,67,23,30.06,29.91,24,7,24,0.00
2013-2-22,66,48,33,45,40,32,100,75,30,30.15,30.04,15,6,15,0.00
2013-2-23,62,50,38,45,32,18,100,59,19,30.16,30.03,23,9,23,0.00
2013-2-24,69,52,39,37,26,16,84,41,15,30.14,30.05,26,10,26,0.00
2013-2-25,69,49,34,46,40,33,100,75,33,30.16,30.06,17,6,17,0.00
2013-2-26,72,54,38,41,28,18,95,44,13,30.12,30.04,28,9,28,0.00
2013-2-27,68,50,33,45,36,27,91,63,30,30.24,30.08,15,5,15,0.00
2013-2-28,70,56,45,56,49,43,100,81,54,30.36,30.24,14,4,14,0.00
2013-3-1,73,56,40,55,50,40,100,82,50,30.32,30.14,13,5,13,0.00
2013-3-2,73,58,46,57,51,45,100,80,48,30.14,29.97,15,4,15,0.00
2013-3-3,68,54,42,53,49,42,100,83,47,29.99,29.92,18,5,18,0.00
2013-3-4,63,48,38,51,45,38,100,91,63,30.04,29.93,15,5,15,0.00
2013-3-5,54,46,33,49,41,33,100,87,68,29.94,29.70,32,10,32,0.11
2013-3-6,57,48,38,50,43,36,100,82,49,29.96,29.71,31,10,31,0.19
2013-3-7,57,46,35,46,38,35,100,77,49,29.87,29.75,13,6,13,0.00
2013-3-8,65,48,33,47,41,31,100,78,30,29.91,29.71,16,6,16,0.00
2013-3-9,73,52,35,46,37,23,100,67,18,30.19,29.91,22,7,22,0.00
2013-3-10,69,52,35,48,41,33,100,69,35,30.26,30.14,18,7,18,0.00
2013-3-11,74,53,36,50,43,34,98,71,34,30.16,30.00,16,5,16,0.00
2013-3-12,75,55,39,57,49,39,100,82,46,30.07,29.99,14,6,14,0.00
2013-3-13,80,60,42,57,50,42,100,75,36,30.09,29.98,12,5,12,0.00
2013-3-14,72,58,46,60,53,46,100,84,56,30.08,29.98,12,4,12,0.00
2013-3-15,76,56,43,56,49,42,100,81,44,30.04,29.93,15,4,15,0.00
2013-3-16,76,56,41,55,45,36,100,74,25,30.02,29.92,17,5,17,0.00
2013-3-17,70,54,40,47,42,35,94,67,30,30.07,29.93,16,4,16,0.00
2013-3-18,67,53,39,51,45,38,100,77,48,30.02,29.92,15,6,15,0.00
2013-3-19,68,53,43,52,47,40,100,81,47,30.03,29.94,13,4,13,0.03
2013-3-20,59,52,46,57,51,46,100,98,88,30.01,29.96,13,6,13,0.23
2013-3-21,70,52,39,51,43,36,100,77,32,30.03,29.91,17,6,17,0.01
2013-3-22,70,55,38,43,26,13,100,42,12,30.03,29.92,20,10,20,0.00
2013-3-23,71,57,43,44,33,22,84,44,23,30.05,29.95,16,7,16,0.00
2013-3-24,72,54,39,52,44,37,99,72,36,29.99,29.87,16,6,16,0.01
2013-3-25,63,50,39,50,44,39,100,83,55,29.92,29.83,18,7,18,0.00
2013-3-26,68,53,40,50,45,40,100,78,44,29.91,29.83,16,6,16,0.00
2013-3-27,62,52,42,54,48,41,100,85,69,29.91,29.83,16,5,16,0.00
2013-3-28,69,56,49,55,51,47,100,85,55,29.99,29.90,14,5,14,0.00
2013-3-29,78,60,43,57,51,43,100,77,36,30.01,29.93,16,5,16,0.00
2013-3-30,66,58,53,59,54,51,100,89,67,29.99,29.91,14,5,14,0.08
2013-3-31,65,57,51,57,54,50,100,89,64,30.00,29.90,17,5,17,0.09
2013-4-1,68,57,50,59,53,49,100,89,55,30.07,29.95,17,5,17,0.22
2013-4-2,72,55,43,59,50,43,100,87,51,30.09,29.99,16,5,16,0.00
2013-4-3,76,56,44,58,51,44,100,85,41,30.04,29.89,14,5,14,0.00
2013-4-4,62,55,50,58,54,50,100,95,80,30.01,29.89,20,6,20,0.72
2013-4-5,64,56,49,56,52,49,100,85,64,30.09,30.01,18,6,18,0.00
2013-4-6,68,57,50,59,52,45,100,88,50,30.10,30.02,20,6,20,0.00
2013-4-7,65,55,50,56,50,45,100,85,60,30.07,29.69,23,7,23,0.02
2013-4-8,71,56,45,48,36,15,88,53,13,29.93,29.67,31,12,31,0.01
2013-4-9,78,62,47,41,33,22,68,36,16,30.03,29.93,26,10,26,0.00
2013-4-10,85,69,50,59,46,35,81,47,27,30.11,29.93,29,8,29,0.00
2013-4-11,78,61,47,54,50,44,98,69,35,29.95,29.74,20,6,20,0.00
2013-4-12,78,58,42,56,47,36,100,74,24,29.84,29.73,17,6,17,0.00
2013-4-13,76,57,43,53,48,43,100,74,37,29.81,29.71,16,5,16,0.00
2013-4-14,74,56,40,46,43,38,98,66,29,29.84,29.72,31,8,31,0.00
2013-4-15,63,52,39,46,38,31,100,63,32,29.83,29.73,28,9,28,0.00
2013-4-16,68,57,38,34,26,18,80,35,16,30.07,29.83,28,12,28,0.00
2013-4-17,71,60,48,31,26,17,48,29,14,30.20,30.07,25,12,25,0.00
2013-4-18,80,65,46,43,34,25,66,33,18,30.19,30.09,20,9,20,0.00
2013-4-19,81,63,44,55,46,40,93,58,31,30.15,29.97,18,7,18,0.00
2013-4-20,83,65,47,49,42,32,83,49,17,30.02,29.90,23,7,23,0.00
2013-4-21,86,65,45,54,47,41,97,58,22,29.97,29.85,17,6,17,0.00
2013-4-22,91,71,49,50,40,19,91,42,9,29.91,29.78,23,7,23,0.00
2013-4-23,86,71,48,44,29,18,83,26,10,29.87,29.77,31,12,31,0.00
2013-4-24,74,55,39,55,47,38,100,77,45,29.84,29.73,20,8,20,0.00
2013-4-25,70,55,43,53,48,42,100,79,46,30.01,29.84,21,7,21,0.00
2013-4-26,77,56,42,57,49,42,100,82,45,30.14,30.01,21,6,21,0.00
2013-4-27,81,58,45,59,51,45,100,80,41,30.15,29.97,17,6,17,0.00
2013-4-28,88,64,44,58,52,44,100,72,34,29.97,29.79,15,6,15,0.00
2013-4-29,89,70,50,60,53,48,100,62,25,29.84,29.69,17,5,17,0.00
2013-4-30,86,69,48,55,32,9,100,44,6,29.81,29.69,29,9,29,0.00
2013-5-1,88,74,55,38,22,14,53,15,9,29.99,29.76,35,13,35,0.00
2013-5-2,90,72,49,42,32,18,75,29,11,30.10,29.98,18,7,18,0.00
2013-5-3,90,70,48,46,40,35,65,38,20,29.99,29.70,15,6,15,0.00
2013-5-4,87,66,46,56,45,30,98,56,15,29.70,29.49,20,8,20,0.00
2013-5-5,70,59,50,52,50,47,99,73,48,29.73,29.51,16,6,16,0.00
2013-5-6,71,59,50,59,53,48,97,81,50,29.88,29.72,14,5,14,0.02
2013-5-7,72,62,52,57,52,44,98,71,46,29.95,29.87,17,6,17,0.00
2013-5-8,71,58,48,55,52,47,100,82,56,30.04,29.93,17,6,17,0.00
2013-5-9,78,59,47,56,51,46,100,79,46,30.07,29.98,17,6,17,0.00
2013-5-10,78,60,48,59,53,47,100,80,50,30.10,30.01,20,7,20,0.00
2013-5-11,89,64,47,62,55,47,100,75,37,30.05,29.97,16,6,16,0.00
2013-5-12,88,65,46,61,52,46,100,69,31,30.07,29.93,16,5,16,0.00
2013-5-13,82,63,46,60,54,46,100,74,44,30.01,29.85,20,7,20,0.00
2013-5-14,75,62,48,57,52,48,100,74,49,29.89,29.82,24,8,24,0.00
2013-5-15,78,60,43,52,48,43,100,70,38,29.95,29.85,17,6,17,0.00
2013-5-16,73,61,49,56,50,44,90,69,45,29.93,29.83,22,6,22,0.00
2013-5-17,71,57,41,51,45,39,100,69,37,29.95,29.84,20,7,20,0.00
2013-5-18,81,62,40,52,47,39,100,63,34,30.05,29.94,21,7,21,0.00
2013-5-19,88,68,46,50,42,25,94,48,11,30.05,29.90,20,6,20,0.00
2013-5-20,90,75,52,47,40,32,78,33,13,29.95,29.83,20,8,20,0.00
2013-5-21,76,62,49,50,44,35,91,56,25,29.89,29.79,21,7,21,0.00
2013-5-22,70,56,38,42,34,22,81,47,20,29.93,29.79,20,8,20,0.00
2013-5-23,74,57,37,45,40,35,98,59,32,29.90,29.77,17,6,17,0.00
2013-5-24,75,58,39,45,42,35,95,60,27,29.91,29.82,20,6,20,0.00
2013-5-25,74,58,42,50,46,41,98,69,37,29.92,29.83,18,7,18,0.00
2013-5-26,74,60,44,56,49,44,100,71,44,30.00,29.91,20,7,20,0.00
2013-5-27,66,56,45,57,52,44,100,86,67,30.01,29.90,18,5,18,0.01
2013-5-28,78,64,54,61,55,51,100,76,46,29.91,29.83,16,6,16,0.00
2013-5-29,78,65,51,55,52,47,89,64,38,29.87,29.81,20,7,20,0.00
2013-5-30,82,63,44,53,48,43,100,64,29,29.91,29.81,20,5,20,0.00
2013-5-31,92,69,45,54,48,43,95,56,21,29.94,29.83,20,5,20,0.00
2013-6-1,90,70,49,60,54,47,97,63,33,29.85,29.69,17,6,17,0.00
2013-6-2,84,65,51,58,53,49,95,69,39,29.70,29.59,22,8,22,0.00
2013-6-3,83,64,51,58,53,49,100,71,43,29.77,29.63,20,7,20,0.00
2013-6-4,78,62,46,55,51,45,100,72,43,29.87,29.75,17,7,17,0.00
2013-6-5,78,63,52,57,53,49,94,73,46,29.92,29.81,20,8,20,0.00
2013-6-6,78,62,50,59,54,49,100,76,48,29.87,29.76,20,7,20,0.00
2013-6-7,90,67,48,64,56,48,100,73,40,29.80,29.65,13,5,13,0.00
2013-6-8,90,69,55,63,59,54,100,74,40,29.72,29.64,21,7,21,0.00
2013-6-9,73,62,51,58,55,50,100,77,55,29.81,29.72,20,7,20,0.00
2013-6-10,67,60,54,56,54,52,96,81,62,29.88,29.72,15,6,15,0.00
2013-6-11,81,65,51,58,54,50,100,72,44,29.91,29.80,18,7,18,0.00
2013-6-12,83,67,48,53,48,36,100,58,22,29.90,29.81,22,6,22,0.00
2013-6-13,86,69,56,53,46,40,75,48,22,30.02,29.87,17,6,17,0.00
2013-6-14,88,70,48,54,44,30,93,48,14,29.90,29.75,22,7,22,0.00
2013-6-15,73,59,47,57,52,46,100,80,53,29.88,29.73,23,8,23,0.00
2013-6-16,88,67,45,57,50,43,100,63,23,29.99,29.87,20,6,20,0.00
2013-6-17,83,68,53,56,51,46,93,56,29,30.00,29.90,20,7,20,0.00
2013-6-18,75,62,49,60,49,39,100,67,31,29.93,29.85,26,7,26,0.00
2013-6-19,78,64,45,50,46,41,92,56,32,29.98,29.88,20,6,20,0.00
2013-6-20,83,64,46,51,47,44,94,59,27,29.92,29.84,22,6,22,0.00
2013-6-21,86,66,46,56,48,39,94,60,20,29.91,29.83,20,6,20,0.00
2013-6-22,90,70,49,58,50,40,99,58,19,29.87,29.74,22,6,22,0.00
2013-6-23,71,62,53,61,56,49,98,82,68,29.78,29.71,20,6,20,0.00
2013-6-24,66,60,56,61,58,55,100,93,72,29.83,29.69,15,6,15,0.01
2013-6-25,68,62,58,66,62,58,100,99,92,29.91,29.80,20,8,20,0.71
2013-6-26,83,70,62,69,63,59,100,82,47,29.99,29.89,16,6,16,0.00
2013-6-27,96,73,56,68,62,56,100,74,31,30.03,29.94,13,4,13,0.00
2013-6-28,102,78,59,68,63,47,100,68,17,29.96,29.84,22,5,22,0.00
2013-6-29,103,78,58,67,62,57,100,65,23,29.87,29.75,15,5,15,0.00
2013-6-30,96,74,58,66,61,57,100,71,28,29.80,29.69,16,6,16,0.00
2013-7-1,95,73,56,65,61,56,100,72,33,29.79,29.72,20,6,20,0.00
2013-7-2,86,72,61,65,61,57,100,72,42,29.85,29.75,22,7,22,0.00
2013-7-3,93,73,58,66,61,57,100,70,35,29.84,29.71,21,6,21,0.00
2013-7-4,89,74,62,66,62,58,96,70,43,29.73,29.61,20,6,20,0.00
2013-7-5,72,63,51,59,56,50,100,79,58,29.69,29.59,23,10,23,0.00
2013-7-6,73,61,54,58,55,52,99,83,57,29.74,29.67,21,9,21,0.00
2013-7-7,82,64,53,59,56,52,100,78,42,29.78,29.70,20,7,20,0.00
2013-7-8,83,63,48,60,54,48,100,77,38,29.89,29.77,17,6,17,0.00
2013-7-9,94,70,49,60,55,48,100,68,22,29.96,29.87,16,6,16,0.00
2013-7-10,86,65,49,60,53,40,100,71,22,29.91,29.82,20,6,20,0.00
2013-7-11,77,60,48,58,53,47,100,81,51,29.87,29.79,22,8,22,0.00
2013-7-12,81,61,47,59,54,47,100,81,39,29.87,29.79,21,7,21,0.00
2013-7-13,82,64,48,59,54,48,100,74,42,29.90,29.80,20,6,20,0.00
2013-7-14,79,62,47,60,54,46,100,78,48,29.93,29.81,20,7,20,0.00
2013-7-15,79,60,47,56,52,46,100,78,44,29.84,29.74,20,6,20,0.00
2013-7-16,76,61,48,56,53,47,100,77,48,29.93,29.77,20,7,20,0.00
2013-7-17,84,63,49,60,54,49,100,78,42,30.02,29.92,17,6,17,0.00
2013-7-18,85,64,49,61,56,49,100,80,39,29.98,29.86,20,7,20,0.00
2013-7-19,81,65,52,61,57,52,100,81,49,29.88,29.75,18,7,18,0.00
2013-7-20,79,64,56,60,57,55,98,82,50,29.77,29.67,17,8,17,0.00
2013-7-21,79,64,56,59,56,54,97,78,48,29.79,29.69,20,7,20,0.00
2013-7-22,84,66,51,61,57,48,100,75,29,29.89,29.79,22,6,22,0.00
2013-7-23,84,70,61,62,58,51,89,68,34,29.94,29.84,20,6,20,0.00
2013-7-24,91,70,54,62,56,51,99,66,27,29.93,29.83,20,6,20,0.00
2013-7-25,84,66,54,60,55,50,96,69,36,29.93,29.83,20,6,20,0.00
2013-7-26,80,63,51,61,55,48,100,77,51,30.02,29.91,20,6,20,0.00
2013-7-27,79,62,51,60,55,50,100,80,52,29.93,29.77,21,6,21,0.00
2013-7-28,73,60,50,59,54,49,100,84,57,29.81,29.72,24,7,24,0.00
2013-7-29,74,61,48,57,54,48,100,81,54,29.91,29.74,23,6,23,0.00
2013-7-30,80,62,51,59,55,51,100,79,47,30.03,29.91,20,6,20,0.00
2013-7-31,80,62,50,58,53,49,100,77,40,30.01,29.89,23,7,23,0.00
2013-8-1,78,62,46,58,53,46,100,75,39,29.98,29.86,22,8,22,0.00
2013-8-2,81,62,46,59,54,46,100,78,43,29.91,29.81,22,8,22,0.00
2013-8-3,76,61,51,58,55,50,100,83,52,29.91,29.83,22,8,22,0.00
2013-8-4,76,60,47,58,53,47,100,82,50,29.93,29.85,20,6,20,0.00
2013-8-5,78,61,50,58,54,49,100,81,50,29.95,29.85,20,7,20,0.00
2013-8-6,78,60,47,56,53,47,100,79,45,29.95,29.87,20,7,20,0.00
2013-8-7,75,63,53,58,54,51,98,76,53,30.03,29.93,17,6,17,0.00
2013-8-8,79,64,52,57,54,50,100,74,44,29.95,29.84,17,6,17,0.00
2013-8-9,78,62,51,57,54,50,100,78,46,29.89,29.83,20,7,20,0.00
2013-8-10,81,64,51,58,56,51,100,78,45,29.97,29.88,18,7,18,0.00
2013-8-11,83,64,52,60,55,50,100,79,37,29.94,29.85,20,6,20,0.00
2013-8-12,81,62,49,60,54,48,100,78,33,29.93,29.84,20,6,20,0.00
2013-8-13,93,67,48,59,53,42,100,68,19,29.93,29.83,16,6,16,0.00
2013-8-14,88,68,50,59,54,50,100,68,29,29.91,29.81,21,7,21,0.00
2013-8-15,90,70,53,65,59,52,100,74,31,29.89,29.81,20,6,20,0.00
2013-8-16,91,71,58,65,59,52,100,73,31,29.93,29.85,20,6,20,0.00
2013-8-17,81,66,53,62,58,52,99,78,51,29.92,29.77,15,6,15,0.00
2013-8-18,97,72,54,63,60,54,100,72,30,29.83,29.72,16,5,16,0.00
2013-8-19,92,72,60,64,61,56,95,71,36,29.84,29.72,13,4,13,0.00
2013-8-20,81,67,59,62,58,54,95,75,51,29.83,29.75,20,7,20,0.00
2013-8-21,84,66,53,60,56,50,100,73,39,29.87,29.78,20,6,20,0.00
2013-8-22,82,64,48,58,53,47,100,72,38,29.90,29.79,20,6,20,0.00
2013-8-23,80,63,49,60,55,49,100,80,41,29.85,29.72,20,7,20,0.00
2013-8-24,85,66,50,60,55,50,100,73,38,29.82,29.73,21,6,21,0.00
2013-8-25,83,68,55,64,58,52,100,74,39,29.87,29.79,17,6,17,0.00
2013-8-26,86,68,55,61,56,51,100,72,35,29.95,29.81,17,5,17,0.00
2013-8-27,87,67,50,59,54,47,100,69,31,29.83,29.73,18,6,18,0.00
2013-8-28,89,68,49,64,57,49,100,76,34,29.86,29.75,17,5,17,0.00
2013-8-29,91,71,58,64,60,56,100,74,33,29.99,29.84,17,5,17,0.00
2013-8-30,93,80,62,64,58,53,81,51,28,29.98,29.84,16,7,16,0.00
2013-8-31,86,68,53,62,55,51,100,68,31,29.91,29.80,20,6,20,0.00
2013-9-1,85,68,57,61,57,53,93,71,35,29.87,29.78,18,5,18,0.00
2013-9-2,85,70,57,64,60,56,100,74,42,29.89,29.80,20,6,20,0.00
2013-9-3,83,66,50,63,55,48,100,73,31,29.93,29.83,22,5,22,0.00
2013-9-4,84,66,49,61,55,49,100,74,37,29.96,29.83,20,6,20,0.00
2013-9-5,85,66,50,61,54,46,100,71,29,29.94,29.84,17,5,17,0.00
2013-9-6,93,71,48,58,50,47,100,57,22,29.92,29.77,15,5,15,0.00
2013-9-7,96,73,53,54,48,42,79,47,18,29.83,29.75,20,5,20,0.00
2013-9-8,95,70,51,61,55,46,89,64,22,29.82,29.69,17,5,17,0.00
2013-9-9,91,68,51,62,56,48,94,68,35,29.75,29.63,16,4,16,0.00
2013-9-10,81,64,51,63,58,51,100,82,53,29.82,29.64,22,6,22,0.00
2013-9-11,81,67,59,61,59,56,95,76,49,29.92,29.81,16,6,16,0.00
2013-9-12,85,68,56,62,59,55,98,77,44,29.91,29.79,18,6,18,0.00
2013-9-13,84,64,53,61,56,52,100,80,35,29.82,29.66,18,5,18,0.00
2013-9-14,81,62,49,60,55,49,100,81,47,29.75,29.64,17,5,17,0.00
2013-9-15,84,64,49,58,55,49,100,77,35,29.79,29.66,20,6,20,0.00
2013-9-16,84,65,53,63,56,52,100,77,38,29.83,29.68,20,6,20,0.00
2013-9-17,81,64,47,63,52,45,100,70,31,29.79,29.69,21,6,21,0.00
2013-9-18,88,68,49,51,45,35,94,51,16,29.85,29.74,21,6,21,0.00
2013-9-19,91,66,46,54,44,34,88,51,16,29.80,29.67,17,6,17,0.00
2013-9-20,79,62,43,61,50,34,91,65,41,29.76,29.65,21,6,21,0.00
2013-9-21,70,61,50,64,58,50,100,90,57,29.79,29.71,15,7,15,0.39
2013-9-22,75,60,46,60,52,46,100,80,44,29.92,29.79,20,6,20,0.00
2013-9-23,84,65,49,62,55,49,100,76,39,29.96,29.84,16,5,16,0.00
2013-9-24,82,64,51,62,52,47,100,72,32,29.91,29.78,21,6,21,0.00
2013-9-25,77,61,45,54,45,38,100,61,28,29.85,29.71,20,7,20,0.00
2013-9-26,79,66,55,43,36,30,62,35,18,29.91,29.74,20,10,20,0.00
2013-9-27,82,66,52,38,35,31,56,34,17,30.03,29.91,18,8,18,0.00
2013-9-28,83,63,44,53,41,31,92,51,16,30.03,29.92,17,6,17,0.00
2013-9-29,77,62,50,63,58,50,100,88,54,30.02,29.95,17,6,17,0.00
2013-9-30,73,64,54,66,62,54,100,94,74,29.98,29.86,16,6,16,0.04
2013-10-1,78,59,43,59,50,43,100,78,39,29.94,29.83,14,5,14,0.00
2013-10-2,80,60,47,58,47,40,100,68,30,29.93,29.83,16,5,16,0.00
2013-10-3,75,62,40,44,33,26,88,41,17,30.00,29.89,29,11,29,0.00
2013-10-4,82,71,64,30,27,24,26,19,13,30.03,29.91,30,15,30,0.00
2013-10-5,86,71,54,34,27,23,44,21,12,30.14,30.01,16,8,16,0.00
2013-10-6,86,64,42,40,34,28,69,37,13,30.06,29.91,12,4,12,0.00
2013-10-7,86,64,46,45,34,24,63,37,11,29.92,29.78,16,5,16,0.00
2013-10-8,77,57,41,50,44,37,97,66,31,29.83,29.59,17,5,17,0.00
2013-10-9,76,57,39,47,42,35,100,63,27,29.67,29.51,17,6,17,0.00
2013-10-10,70,57,45,52,45,35,97,65,38,29.89,29.66,18,6,18,0.00
2013-10-11,74,54,40,52,45,40,100,76,34,29.99,29.87,15,5,15,0.00
2013-10-12,73,52,38,53,45,38,100,79,37,29.92,29.77,18,6,18,0.00
2013-10-13,80,57,40,50,41,33,100,64,20,29.96,29.79,16,5,16,0.00
2013-10-14,81,58,38,46,39,33,96,55,18,30.04,29.92,14,4,14,0.00
2013-10-15,83,60,37,42,31,22,86,43,12,29.97,29.86,23,6,23,0.00
2013-10-16,82,61,40,38,33,29,69,40,18,30.02,29.89,15,4,15,0.00
2013-10-17,84,61,41,40,35,30,69,41,16,30.01,29.87,15,5,15,0.00
2013-10-18,81,59,40,45,39,34,82,52,23,29.97,29.87,14,5,14,0.00
2013-10-19,85,60,39,52,41,36,93,55,20,30.00,29.91,12,4,12,0.00
2013-10-20,83,57,39,52,45,36,97,68,25,29.93,29.81,15,4,15,0.00
2013-10-21,74,53,39,53,47,39,100,85,45,29.91,29.82,13,4,13,0.00
2013-10-22,79,54,39,55,48,39,100,84,38,29.92,29.82,13,4,13,0.00
2013-10-23,73,52,40,55,48,40,100,89,51,29.87,29.80,10,3,10,0.00
2013-10-24,69,51,41,51,47,41,100,88,50,29.98,29.85,12,4,12,0.00
2013-10-25,76,54,38,54,47,38,100,81,39,30.09,29.97,13,4,13,0.00
2013-10-26,81,58,39,52,46,39,100,72,29,30.06,29.91,14,4,14,0.00
2013-10-27,63,49,38,52,45,37,100,87,58,29.91,29.50,23,6,23,0.00
2013-10-28,66,49,35,50,43,35,100,82,42,29.71,29.53,17,5,17,0.00
2013-10-29,65,52,42,52,46,42,100,81,50,29.93,29.71,14,4,14,0.00
2013-10-30,69,52,38,51,44,38,100,79,47,30.07,29.93,12,5,12,0.00
2013-10-31,73,54,38,52,44,38,100,73,39,30.09,29.98,13,5,13,0.00
2013-11-1,81,58,41,50,42,36,100,62,22,30.07,29.92,10,4,10,0.00
2013-11-2,75,55,42,52,45,38,100,71,41,29.93,29.79,13,4,13,0.00
2013-11-3,70,54,38,45,28,17,99,42,16,29.96,29.80,17,6,17,0.00
2013-11-4,72,58,33,32,27,22,82,35,16,29.98,29.77,26,11,26,0.00
2013-11-5,73,62,49,38,33,28,58,35,24,30.12,29.95,29,9,29,0.00
2013-11-6,76,58,43,41,36,33,74,46,23,30.19,30.06,12,5,12,0.00
2013-11-7,77,59,47,42,38,34,81,49,23,30.09,29.97,16,5,16,0.00
2013-11-8,78,55,40,52,43,37,99,68,34,29.99,29.85,14,4,14,0.00
2013-11-9,76,52,37,49,42,35,98,73,30,29.94,29.86,11,3,11,0.00
2013-11-10,68,51,40,52,46,40,100,85,54,30.03,29.91,13,5,13,0.00
2013-11-11,68,51,37,50,44,37,100,79,49,30.08,29.96,10,4,10,0.00
2013-11-12,74,57,46,49,45,40,86,66,37,30.19,30.05,12,4,12,0.00
2013-11-13,81,56,41,54,46,38,100,74,33,30.16,29.99,13,4,13,0.00
2013-11-14,62,50,41,56,48,41,100,96,74,29.99,29.73,12,3,12,0.00
2013-11-15,71,49,36,46,38,34,100,72,29,29.75,29.62,16,4,16,0.00
2013-11-16,66,48,33,50,41,33,100,79,40,29.80,29.63,17,4,17,0.00
2013-11-17,65,48,38,50,44,37,100,88,57,29.99,29.80,12,4,12,0.00
2013-11-18,62,49,37,51,44,37,100,86,56,30.06,29.96,15,4,15,0.00
2013-11-19,56,53,49,56,52,45,100,99,87,30.00,29.84,13,3,13,0.69
2013-11-20,59,56,52,59,56,51,100,100,96,29.84,29.75,15,5,15,0.48
2013-11-21,62,56,48,51,31,15,100,47,19,29.90,29.79,36,14,36,0.01
2013-11-22,73,64,57,16,12,5,19,13,9,29.94,29.83,38,17,38,0.00
2013-11-23,69,57,39,37,26,12,75,36,13,29.98,29.87,20,8,20,0.00
2013-11-24,65,48,33,43,37,29,92,68,39,30.13,29.98,12,5,12,0.00
2013-11-25,65,48,34,47,41,34,100,79,44,30.24,30.13,12,4,12,0.00
2013-11-26,68,49,36,48,40,36,100,77,37,30.15,29.93,9,3,9,0.00
2013-11-27,68,53,42,44,40,37,86,64,39,29.93,29.75,14,6,14,0.00
2013-11-28,71,53,42,45,41,37,87,67,34,29.95,29.75,13,5,13,0.00
2013-11-29,69,52,38,48,43,37,100,74,39,30.10,29.95,12,4,12,0.00
2013-11-30,68,51,39,49,44,38,100,80,45,30.18,30.09,13,4,13,0.00
2013-12-1,70,51,38,52,44,38,100,80,43,30.25,30.11,13,4,13,0.00
2013-12-2,65,50,36,52,46,36,100,87,59,30.11,29.83,12,4,12,0.00
2013-12-3,59,49,40,51,35,18,100,60,30,29.83,29.74,20,6,20,0.00
2013-12-4,56,43,26,20,17,10,70,37,19,29.95,29.82,20,8,20,0.00
2013-12-5,53,36,23,28,18,11,95,52,21,30.05,29.93,13,5,13,0.00
2013-12-6,47,37,21,47,32,21,100,87,50,30.07,29.78,16,5,16,0.52
2013-12-7,48,36,29,44,32,22,100,85,38,30.12,29.78,20,6,20,0.01
2013-12-8,49,35,26,29,24,16,100,67,30,30.20,30.09,13,6,13,0.00
2013-12-9,53,34,22,28,22,17,95,65,30,30.28,30.15,13,5,13,0.00
2013-12-10,54,37,23,31,26,19,93,68,36,30.28,30.08,12,5,12,0.00
2013-12-11,60,40,25,37,30,25,100,72,32,30.15,30.05,10,4,10,0.00
2013-12-12,60,42,27,36,32,24,98,72,38,30.16,30.06,12,4,12,0.00
2013-12-13,60,42,27,41,35,27,100,80,43,30.24,30.09,12,4,12,0.00
2013-12-14,66,44,30,44,36,30,100,79,34,30.30,30.18,13,4,13,0.00
2013-12-15,63,44,29,44,36,28,100,78,42,30.26,30.12,10,4,10,0.00
2013-12-16,71,48,32,42,37,32,100,72,29,30.13,30.03,13,4,13,0.00
2013-12-17,69,48,35,44,37,31,93,70,32,30.08,29.91,8,3,8,0.00
2013-12-18,63,47,37,48,41,34,100,81,45,29.91,29.62,13,4,13,0.00
2013-12-19,62,48,31,46,27,11,100,56,20,29.82,29.58,31,11,31,0.00
2013-12-20,63,50,36,31,22,1,70,37,13,29.91,29.80,22,7,22,0.00
2013-12-21,67,47,32,46,39,27,100,76,47,29.97,29.83,10,4,10,0.00
2013-12-22,64,46,35,50,39,35,100,79,43,30.17,29.96,16,5,16,0.00
2013-12-23,68,48,35,47,40,34,100,77,39,30.31,30.16,12,4,12,0.00
2013-12-24,67,49,36,48,41,35,100,78,43,30.22,30.10,14,4,14,0.00
2013-12-25,70,47,31,43,35,29,100,69,30,30.21,30.10,13,4,13,0.00
2013-12-26,70,47,30,38,33,27,93,61,27,30.16,30.08,10,4,10,0.00
2013-12-27,63,45,33,40,33,28,86,65,33,30.14,30.00,9,3,9,0.00
2013-12-28,67,50,30,39,31,19,99,56,18,30.05,29.93,24,6,24,0.00
2013-12-29,70,55,40,31,23,14,54,31,17,30.07,29.99,20,7,20,0.00
2013-12-30,65,47,33,36,30,22,83,55,29,30.16,30.05,12,4,12,0.00
2013-12-31,64,46,35,40,34,28,89,67,38,30.17,30.05,12,4,12,0.00
2014-1-1,64,46,30,38,33,26,92,64,31,30.11,30.02,15,5,15,0.00
2014-1-2,68,49,33,42,36,31,96,65,33,30.09,29.94,12,4,12,0.00